This is the latest recevied weather packets stored in our database for station/object W1LBM. If no packets are shown the sender has not sent any weather packets the latest 10 day(s).
| Time | Temp. | Humidity | Pressure | Rain* | Wind** | Luminosity | Snow |
|---|---|---|---|---|---|---|---|
| 1778021456 | 19.44° C | 58% | 1012.2 hPa | 0 mm | - | 53 W/m² | - |
| 1778021154 | 20° C | 57% | 1012 hPa | 0 mm | - | 55 W/m² | - |
| 1778020851 | 20° C | 56% | 1012.1 hPa | 0 mm | - | 60 W/m² | - |
| 1778020548 | 20° C | 58% | 1012.1 hPa | 0 mm | - | 62 W/m² | - |
| 1778020244 | 19.44° C | 58% | 1012.2 hPa | 0 mm | - | 65 W/m² | - |
| 1778019940 | 18.89° C | 61% | 1012.1 hPa | 0 mm | - | 72 W/m² | - |
| 1778019637 | 18.89° C | 61% | 1012.1 hPa | 0 mm | - | 67 W/m² | - |
| 1778019334 | 18.89° C | 61% | 1012 hPa | 0 mm | - | 67 W/m² | - |
| 1778019030 | 18.89° C | 62% | 1012 hPa | 0 mm | - | 72 W/m² | - |
| 1778018728 | 18.89° C | 62% | 1012 hPa | 0 mm | - | 63 W/m² | - |
| 1778018426 | 18.89° C | 62% | 1011.8 hPa | 0 mm | - | 61 W/m² | - |
| 1778018123 | 20° C | 61% | 1012 hPa | 0 mm | - | 63 W/m² | - |
| 1778017821 | 20° C | 60% | 1012.1 hPa | 0 mm | - | 78 W/m² | - |
| 1778017519 | 21.11° C | 58% | 1011.9 hPa | 0 mm | - | 35 W/m² | - |
| 1778017215 | 21.67° C | 54% | 1011.8 hPa | 0 mm | - | 109 W/m² | - |
| 1778016913 | 22.22° C | 52% | 1011.7 hPa | 0 mm | - | 105 W/m² | - |
| 1778016609 | 22.22° C | 52% | 1011.8 hPa | 0 mm | - | 78 W/m² | - |
| 1778016306 | 22.22° C | 52% | 1011.5 hPa | 0 mm | - | 92 W/m² | - |
| 1778016003 | 22.22° C | 51% | 1011.7 hPa | 0 mm | - | 69 W/m² | - |
| 1778015700 | 22.22° C | 52% | 1011.8 hPa | 0 mm | - | 94 W/m² | - |
| 1778015396 | 22.22° C | 52% | 1011.7 hPa | 0 mm | - | 228 W/m² | - |
| 1778015093 | 21.67° C | 56% | 1011.8 hPa | 0 mm | - | 288 W/m² | - |
| 1778014790 | 21.11° C | 56% | 1011.9 hPa | 0 mm | - | 196 W/m² | - |
| 1778014489 | 21.11° C | 57% | 1011.7 hPa | 0 mm | - | 178 W/m² | - |
| 1778014185 | 21.67° C | 56% | 1011.7 hPa | 0 mm | - | 120 W/m² | - |
* Rain latest hour (hover to see other rain measurements)
** Current wind speed in m/s (hover to see current wind gust speed)